createdAt,value
2022-08-27T00:02:07.014Z,19.10
2022-08-27T00:04:36.582Z,19.00
2022-08-27T00:07:05.692Z,19.00
2022-08-27T00:09:33.788Z,18.90
2022-08-27T00:12:02.471Z,19.00
2022-08-27T00:14:30.361Z,19.00
2022-08-27T00:16:58.378Z,19.00
2022-08-27T00:19:26.226Z,18.90
2022-08-27T00:21:55.827Z,18.80
2022-08-27T00:24:24.308Z,18.70
2022-08-27T00:26:53.847Z,18.70
2022-08-27T00:29:21.929Z,18.70
2022-08-27T00:31:53.217Z,18.80
2022-08-27T00:34:22.818Z,18.80
2022-08-27T00:36:51.398Z,18.90
2022-08-27T00:39:20.496Z,18.90
2022-08-27T00:41:48.655Z,18.90
2022-08-27T00:44:16.512Z,18.90
2022-08-27T00:46:54.169Z,18.90
2022-08-27T00:49:21.920Z,18.90
2022-08-27T00:52:08.592Z,18.90
2022-08-27T00:54:36.507Z,18.90
2022-08-27T00:57:05.595Z,18.80
2022-08-27T00:59:33.527Z,18.80
2022-08-27T01:02:20.241Z,18.80
2022-08-27T01:04:56.396Z,18.90
2022-08-27T01:07:25.622Z,18.90
2022-08-27T01:10:00.407Z,18.90
2022-08-27T01:12:30.373Z,18.90
2022-08-27T01:14:58.652Z,19.00
2022-08-27T01:17:26.626Z,18.90
2022-08-27T01:19:59.218Z,18.90
2022-08-27T01:23:04.129Z,18.90
2022-08-27T01:25:33.158Z,18.90
2022-08-27T01:28:03.309Z,18.90
2022-08-27T01:30:31.779Z,18.90
2022-08-27T01:32:59.691Z,18.90
2022-08-27T01:35:27.693Z,18.90
2022-08-27T01:37:57.188Z,18.80
2022-08-27T01:40:25.665Z,18.70
2022-08-27T01:42:55.641Z,18.60
2022-08-27T01:45:30.405Z,18.50
2022-08-27T01:47:59.970Z,18.40
2022-08-27T01:50:31.974Z,18.30
2022-08-27T01:53:06.001Z,18.30
2022-08-27T01:55:34.371Z,18.30
2022-08-27T01:58:02.298Z,18.30
2022-08-27T02:00:38.920Z,18.30
2022-08-27T02:03:08.140Z,18.30
2022-08-27T02:05:39.364Z,18.30
2022-08-27T02:08:17.718Z,18.20
2022-08-27T02:10:47.598Z,18.20
2022-08-27T02:13:15.930Z,18.20
2022-08-27T02:16:03.265Z,18.30
2022-08-27T02:18:31.308Z,18.30
2022-08-27T02:20:59.161Z,18.30
2022-08-27T02:23:27.063Z,18.30
2022-08-27T02:25:54.861Z,18.30
2022-08-27T02:28:22.651Z,18.40
2022-08-27T02:30:50.517Z,18.30
2022-08-27T02:33:18.284Z,18.30
2022-08-27T02:35:46.249Z,18.30
2022-08-27T02:38:14.355Z,18.30
2022-08-27T02:40:42.369Z,18.30
2022-08-27T02:43:10.200Z,18.30
2022-08-27T02:45:43.738Z,18.40
2022-08-27T02:48:12.205Z,18.40
2022-08-27T02:50:40.312Z,18.40
2022-08-27T02:53:08.236Z,18.30
2022-08-27T02:55:37.070Z,18.30
2022-08-27T02:58:05.099Z,18.20
2022-08-27T03:00:33.635Z,18.20
2022-08-27T03:03:02.328Z,18.10
2022-08-27T03:05:30.217Z,18.10
2022-08-27T03:07:59.497Z,18.00
2022-08-27T03:10:27.716Z,18.00
2022-08-27T03:12:56.254Z,18.00
2022-08-27T03:15:24.832Z,18.00
2022-08-27T03:18:11.555Z,18.00
2022-08-27T03:20:41.780Z,18.00
2022-08-27T03:23:10.290Z,18.00
2022-08-27T03:25:38.835Z,18.00
2022-08-27T03:28:20.558Z,18.00
2022-08-27T03:30:59.606Z,18.00
2022-08-27T03:33:29.946Z,18.10
2022-08-27T03:35:57.848Z,18.10
2022-08-27T03:38:27.308Z,18.00
2022-08-27T03:40:55.558Z,18.10
2022-08-27T03:43:23.718Z,18.10
2022-08-27T03:46:00.803Z,18.10
2022-08-27T03:48:34.207Z,18.00
2022-08-27T03:51:11.128Z,18.10
2022-08-27T03:53:41.563Z,18.10
2022-08-27T03:56:10.127Z,18.00
2022-08-27T03:58:39.032Z,18.00
2022-08-27T04:01:07.821Z,17.90
2022-08-27T04:03:35.821Z,18.00
2022-08-27T04:06:04.302Z,18.00
2022-08-27T04:08:32.178Z,18.00
2022-08-27T04:11:00.129Z,18.00
2022-08-27T04:13:27.983Z,18.00
2022-08-27T04:15:56.416Z,18.00
2022-08-27T04:18:24.379Z,18.00
2022-08-27T04:20:52.783Z,17.90
2022-08-27T04:23:20.720Z,18.00
2022-08-27T04:25:48.885Z,18.00
2022-08-27T04:28:17.173Z,18.00
2022-08-27T04:30:46.830Z,18.10
2022-08-27T04:33:15.418Z,18.10
2022-08-27T04:35:43.734Z,18.10
2022-08-27T04:38:11.775Z,18.10
2022-08-27T04:40:58.209Z,18.10
2022-08-27T04:43:28.222Z,18.20
2022-08-27T04:45:56.604Z,18.20
2022-08-27T04:48:25.791Z,18.20
2022-08-27T04:50:53.662Z,18.20
2022-08-27T04:53:21.537Z,18.20
2022-08-27T04:55:52.773Z,18.30
2022-08-27T04:58:22.292Z,18.30
2022-08-27T05:00:55.473Z,18.10
2022-08-27T05:03:24.324Z,18.10
2022-08-27T05:05:53.835Z,18.20
2022-08-27T05:08:21.643Z,18.20
2022-08-27T05:10:51.388Z,18.20
2022-08-27T05:13:24.462Z,18.30
2022-08-27T05:15:59.122Z,18.30
2022-08-27T05:18:26.934Z,18.30
2022-08-27T05:20:55.205Z,18.40
2022-08-27T05:23:23.359Z,18.50
2022-08-27T05:25:53.644Z,18.80
2022-08-27T05:28:27.786Z,19.00
2022-08-27T05:31:04.897Z,18.90
2022-08-27T05:33:33.545Z,19.00
2022-08-27T05:36:02.181Z,19.20
2022-08-27T05:38:30.764Z,19.30
2022-08-27T05:41:06.567Z,19.50
2022-08-27T05:43:35.695Z,19.10
2022-08-27T05:46:10.100Z,19.50
2022-08-27T05:48:39.717Z,19.90
2022-08-27T05:51:11.193Z,20.10
2022-08-27T05:53:39.445Z,20.30
2022-08-27T05:56:15.556Z,20.60
2022-08-27T05:59:02.510Z,20.60
2022-08-27T06:01:35.256Z,20.60
2022-08-27T06:04:04.918Z,20.90
2022-08-27T06:06:37.617Z,20.50
2022-08-27T06:09:06.279Z,20.40
2022-08-27T06:11:35.163Z,20.60
2022-08-27T06:14:03.530Z,20.90
2022-08-27T06:16:31.860Z,21.30
2022-08-27T06:18:59.752Z,21.30
2022-08-27T06:21:27.663Z,21.40
2022-08-27T06:23:55.645Z,21.30
2022-08-27T06:26:25.865Z,21.00
2022-08-27T06:28:53.872Z,21.50
2022-08-27T06:31:24.909Z,21.90
2022-08-27T06:38:00.409Z,22.40
2022-08-27T06:40:28.355Z,22.80
2022-08-27T06:42:56.348Z,22.20
2022-08-27T06:45:24.193Z,21.90
2022-08-27T06:47:52.226Z,22.20
2022-08-27T06:50:24.252Z,22.60
2022-08-27T06:52:54.683Z,22.60
2022-08-27T06:55:22.659Z,22.60
2022-08-27T06:57:50.856Z,22.60
2022-08-27T07:00:18.796Z,22.80
2022-08-27T07:02:46.735Z,23.20
2022-08-27T07:05:14.650Z,23.60
2022-08-27T07:07:46.762Z,24.20
2022-08-27T07:10:16.614Z,24.60
2022-08-27T07:12:44.410Z,24.60
2022-08-27T07:15:12.525Z,24.80
2022-08-27T07:17:44.700Z,24.70
2022-08-27T07:20:15.101Z,24.10
2022-08-27T07:22:44.678Z,24.90
2022-08-27T07:25:19.193Z,25.30
2022-08-27T07:27:50.417Z,25.60
2022-08-27T07:30:18.816Z,25.30
2022-08-27T07:32:47.438Z,25.20
2022-08-27T07:35:15.275Z,25.20
2022-08-27T07:37:43.346Z,25.40
2022-08-27T07:40:15.554Z,25.60
2022-08-27T07:43:02.461Z,25.60
2022-08-27T07:45:31.016Z,25.80
2022-08-27T07:47:58.823Z,26.30
2022-08-27T07:50:26.730Z,26.00
2022-08-27T07:52:54.552Z,26.00
2022-08-27T07:55:22.410Z,26.20
2022-08-27T07:57:50.246Z,25.80
2022-08-27T08:00:18.350Z,25.90
2022-08-27T08:02:47.400Z,25.70
2022-08-27T08:05:16.750Z,25.80
2022-08-27T08:07:44.613Z,26.60
2022-08-27T08:10:12.858Z,26.70
2022-08-27T08:12:41.029Z,27.10
2022-08-27T08:15:11.653Z,26.60
2022-08-27T08:17:40.435Z,25.80
2022-08-27T08:20:21.883Z,26.00
2022-08-27T08:22:57.846Z,26.40
2022-08-27T08:25:25.774Z,27.20
2022-08-27T08:27:53.573Z,27.50
2022-08-27T08:30:21.677Z,27.60
2022-08-27T08:32:49.828Z,26.70
2022-08-27T08:35:17.986Z,26.40
2022-08-27T08:37:46.187Z,26.90
2022-08-27T08:40:41.629Z,26.90
2022-08-27T08:43:21.488Z,27.50
2022-08-27T08:45:50.685Z,27.60
2022-08-27T08:48:22.723Z,26.80
2022-08-27T08:50:50.567Z,26.30
2022-08-27T08:53:47.646Z,26.50
2022-08-27T08:56:25.563Z,27.40
2022-08-27T08:59:10.459Z,27.60
2022-08-27T09:01:38.732Z,27.20
2022-08-27T09:04:11.364Z,27.80
2022-08-27T09:07:20.760Z,28.60
2022-08-27T09:10:18.654Z,28.20
2022-08-27T09:12:46.777Z,28.10
2022-08-27T09:15:22.014Z,28.20
2022-08-27T09:17:50.762Z,28.30
2022-08-27T09:20:25.539Z,28.70
2022-08-27T09:23:25.814Z,28.70
2022-08-27T09:25:53.716Z,28.80
2022-08-27T09:28:45.181Z,29.30
2022-08-27T09:31:17.112Z,28.70
2022-08-27T09:33:56.691Z,29.10
2022-08-27T09:36:25.627Z,29.80
2022-08-27T09:39:01.879Z,30.50
2022-08-27T09:41:35.397Z,30.90
2022-08-27T09:44:10.144Z,31.00
2022-08-27T09:46:38.153Z,31.20
2022-08-27T09:49:16.361Z,30.00
2022-08-27T09:51:46.447Z,30.30
2022-08-27T09:54:38.021Z,30.40
2022-08-27T09:57:07.561Z,30.10
2022-08-27T09:59:41.472Z,30.30
2022-08-27T10:02:19.094Z,30.50
2022-08-27T10:04:55.535Z,30.50
2022-08-27T10:07:53.868Z,30.20
2022-08-27T10:10:24.353Z,30.30
2022-08-27T10:13:09.099Z,30.00
2022-08-27T10:15:49.501Z,29.70
2022-08-27T10:18:26.524Z,29.70
2022-08-27T10:21:07.856Z,28.90
2022-08-27T10:24:01.335Z,28.70
2022-08-27T10:27:03.159Z,29.20
2022-08-27T10:30:00.781Z,29.50
2022-08-27T10:32:55.342Z,29.10
2022-08-27T10:35:26.600Z,29.20
2022-08-27T10:38:01.467Z,29.30
2022-08-27T10:40:46.652Z,29.50
2022-08-27T10:43:35.611Z,29.70
2022-08-27T10:46:26.274Z,30.00
2022-08-27T10:49:20.874Z,29.80
2022-08-27T10:51:56.917Z,29.70
2022-08-27T10:54:42.316Z,29.70
2022-08-27T10:57:35.427Z,29.20
2022-08-27T11:00:14.776Z,28.70
2022-08-27T11:02:54.076Z,29.30
2022-08-27T11:05:27.967Z,29.60
2022-08-27T11:08:34.829Z,29.70
2022-08-27T11:11:49.785Z,29.80
2022-08-27T11:14:01.209Z,30.00
2022-08-27T11:16:44.777Z,30.10
2022-08-27T11:19:23.366Z,30.50
2022-08-27T11:22:26.232Z,30.20
2022-08-27T11:25:15.539Z,30.30
2022-08-27T11:27:44.342Z,30.00
2022-08-27T11:30:26.543Z,29.70
2022-08-27T11:33:03.102Z,29.80
2022-08-27T11:36:06.693Z,29.90
2022-08-27T11:39:06.518Z,29.70
2022-08-27T11:41:46.305Z,29.80
2022-08-27T11:44:16.092Z,30.10
2022-08-27T11:46:48.341Z,30.30
2022-08-27T11:49:49.700Z,30.70
2022-08-27T11:52:29.289Z,30.60
2022-08-27T11:55:21.493Z,30.30
2022-08-27T11:58:02.720Z,30.50
2022-08-27T12:00:35.041Z,30.50
2022-08-27T12:03:11.131Z,30.30
2022-08-27T12:05:46.797Z,29.80
2022-08-27T12:08:18.617Z,29.50
2022-08-27T12:11:07.180Z,29.40
2022-08-27T12:14:12.515Z,29.10
2022-08-27T12:16:46.424Z,29.10
2022-08-27T12:19:41.815Z,28.90
2022-08-27T12:22:56.899Z,28.90
2022-08-27T12:25:24.991Z,28.80
2022-08-27T12:28:05.246Z,28.30
2022-08-27T12:30:35.935Z,27.60
2022-08-27T12:33:21.752Z,27.00
2022-08-27T12:40:29.352Z,26.00
2022-08-27T12:43:07.497Z,25.90
2022-08-27T12:45:52.640Z,26.00
2022-08-27T12:48:34.128Z,25.70
2022-08-27T12:51:14.587Z,25.10
2022-08-27T12:53:58.184Z,24.80
2022-08-27T12:56:38.054Z,24.60
2022-08-27T12:59:17.700Z,24.60
2022-08-27T13:02:20.895Z,24.50
2022-08-27T13:04:49.189Z,24.50
2022-08-27T13:07:32.883Z,24.60
2022-08-27T13:10:30.071Z,24.60
2022-08-27T13:13:10.317Z,24.60
2022-08-27T13:15:50.347Z,24.40
2022-08-27T13:18:18.832Z,24.20
2022-08-27T13:20:53.405Z,24.00
2022-08-27T13:23:24.092Z,24.10
2022-08-27T13:26:09.946Z,24.00
2022-08-27T13:28:40.665Z,24.10
2022-08-27T13:31:12.958Z,24.20
2022-08-27T13:33:42.264Z,24.30
2022-08-27T13:36:10.444Z,24.10
2022-08-27T13:38:47.897Z,24.00
2022-08-27T13:41:29.864Z,24.00
2022-08-27T13:44:06.146Z,24.00
2022-08-27T13:46:35.674Z,23.80
2022-08-27T13:49:03.592Z,23.70
2022-08-27T13:51:35.881Z,23.80
2022-08-27T13:54:13.374Z,23.80
2022-08-27T13:56:57.613Z,23.80
2022-08-27T13:59:30.399Z,23.70
2022-08-27T14:02:10.485Z,23.70
2022-08-27T14:05:03.651Z,23.60
2022-08-27T14:07:36.005Z,23.60
2022-08-27T14:15:27.975Z,23.60
2022-08-27T14:17:56.753Z,23.70
2022-08-27T14:20:24.945Z,23.90
2022-08-27T14:22:52.827Z,23.80
2022-08-27T14:25:22.576Z,23.70
2022-08-27T14:27:54.241Z,23.50
2022-08-27T14:30:28.993Z,23.40
2022-08-27T14:33:00.437Z,23.50
2022-08-27T14:35:31.178Z,23.30
2022-08-27T14:38:03.842Z,23.30
2022-08-27T14:40:32.954Z,23.20
2022-08-27T14:43:00.964Z,23.40
2022-08-27T14:45:29.497Z,23.30
2022-08-27T14:48:02.171Z,23.00
2022-08-27T14:50:30.333Z,23.10
2022-08-27T14:52:58.164Z,23.50
2022-08-27T14:55:26.068Z,23.70
2022-08-27T14:57:53.834Z,23.60
2022-08-27T15:00:21.815Z,23.60
2022-08-27T15:04:05.459Z,23.80
2022-08-27T15:06:33.354Z,24.00
2022-08-27T15:09:01.962Z,24.00
2022-08-27T15:11:33.903Z,24.00
2022-08-27T15:14:05.314Z,23.80
2022-08-27T15:16:39.185Z,23.90
2022-08-27T15:19:08.967Z,23.80
2022-08-27T15:21:39.305Z,23.60
2022-08-27T15:24:23.267Z,23.60
2022-08-27T15:26:59.380Z,23.80
2022-08-27T15:29:27.857Z,24.00
2022-08-27T15:31:55.949Z,24.10
2022-08-27T15:34:23.837Z,24.30
2022-08-27T15:36:51.833Z,24.30
2022-08-27T15:39:19.627Z,24.40
2022-08-27T15:42:05.332Z,24.30
2022-08-27T15:44:34.760Z,24.20
2022-08-27T15:47:02.897Z,24.10
2022-08-27T15:49:30.724Z,24.10
2022-08-27T15:51:59.472Z,24.20
2022-08-27T15:54:31.200Z,24.30
2022-08-27T15:57:00.118Z,24.40
2022-08-27T15:59:28.110Z,24.50
2022-08-27T16:01:56.173Z,24.40
2022-08-27T16:04:24.167Z,24.50
2022-08-27T16:06:52.085Z,24.40
2022-08-27T16:09:20.040Z,24.30
2022-08-27T16:11:47.993Z,24.20
2022-08-27T16:14:16.266Z,24.20
2022-08-27T16:16:46.220Z,24.10
2022-08-27T16:19:16.593Z,24.00
2022-08-27T16:21:45.597Z,23.90
2022-08-27T16:24:13.978Z,23.90
2022-08-27T16:26:41.830Z,23.90
2022-08-27T16:29:09.824Z,23.80
2022-08-27T16:31:38.297Z,23.90
2022-08-27T16:34:15.084Z,23.90
2022-08-27T16:36:43.424Z,23.80
2022-08-27T16:39:11.441Z,23.80
2022-08-27T16:41:39.274Z,23.60
2022-08-27T16:44:07.667Z,23.60
2022-08-27T16:46:36.140Z,23.50
2022-08-27T16:49:22.539Z,23.40
2022-08-27T16:51:50.583Z,23.40
2022-08-27T16:54:18.604Z,23.40
2022-08-27T16:56:46.476Z,23.40
2022-08-27T16:59:16.201Z,23.40
2022-08-27T17:01:47.954Z,23.30
2022-08-27T17:04:27.905Z,23.20
2022-08-27T17:08:06.812Z,23.20
2022-08-27T17:10:45.686Z,23.20
2022-08-27T17:13:22.106Z,23.20
2022-08-27T17:15:56.869Z,23.10
2022-08-27T17:18:27.770Z,23.10
2022-08-27T17:20:57.002Z,23.00
2022-08-27T17:23:37.518Z,23.00
2022-08-27T17:26:07.611Z,23.00
2022-08-27T17:28:36.023Z,22.90
2022-08-27T17:31:04.493Z,22.80
2022-08-27T17:33:41.903Z,22.70
2022-08-27T17:36:11.159Z,22.60
2022-08-27T17:38:39.522Z,22.50
2022-08-27T17:41:16.662Z,22.40
2022-08-27T17:43:44.583Z,22.30
2022-08-27T17:46:13.739Z,22.30
2022-08-27T17:48:42.051Z,22.20
2022-08-27T17:51:12.296Z,22.10
2022-08-27T17:53:47.129Z,22.00
2022-08-27T17:56:18.666Z,22.00
2022-08-27T17:58:47.491Z,22.00
2022-08-27T18:01:21.272Z,22.00
2022-08-27T18:03:49.491Z,21.90
2022-08-27T18:06:17.855Z,21.80
2022-08-27T18:08:45.731Z,21.70
2022-08-27T18:11:16.095Z,21.60
2022-08-27T18:13:45.799Z,21.50
2022-08-27T18:16:13.897Z,21.50
2022-08-27T18:18:42.176Z,21.50
2022-08-27T18:21:10.202Z,21.40
2022-08-27T18:23:38.239Z,21.50
2022-08-27T18:26:11.887Z,21.60
2022-08-27T18:28:39.989Z,21.60
2022-08-27T18:31:09.889Z,21.60
2022-08-27T18:33:38.071Z,21.60
2022-08-27T18:36:06.609Z,21.50
2022-08-27T18:38:34.602Z,21.40
2022-08-27T18:41:03.217Z,21.30
2022-08-27T18:43:34.735Z,21.20
2022-08-27T18:46:04.439Z,21.20
2022-08-27T18:48:33.276Z,21.20
2022-08-27T18:51:04.102Z,21.20
2022-08-27T18:53:35.209Z,21.20
2022-08-27T18:56:05.086Z,21.30
2022-08-27T18:58:33.121Z,21.20
2022-08-27T19:01:03.008Z,21.10
2022-08-27T19:03:38.719Z,21.10
2022-08-27T19:06:08.949Z,21.00
2022-08-27T19:08:39.410Z,21.00
2022-08-27T19:11:07.397Z,21.10
2022-08-27T19:13:35.493Z,20.90
2022-08-27T19:16:15.902Z,20.90
2022-08-27T19:18:44.609Z,20.80
2022-08-27T19:21:12.520Z,20.70
2022-08-27T19:23:40.435Z,20.60
2022-08-27T19:26:16.527Z,20.50
2022-08-27T19:28:47.279Z,20.50
2022-08-27T19:31:15.457Z,20.50
2022-08-27T19:33:44.813Z,20.50
2022-08-27T19:36:16.059Z,20.60
2022-08-27T19:38:46.059Z,20.80
2022-08-27T19:41:13.894Z,20.90
2022-08-27T19:43:44.725Z,20.90
2022-08-27T19:46:18.073Z,20.90
2022-08-27T19:48:46.183Z,20.80
2022-08-27T19:51:14.638Z,20.80
2022-08-27T19:53:42.727Z,20.70
2022-08-27T19:56:15.667Z,20.50
2022-08-27T19:58:44.687Z,20.30
2022-08-27T20:01:12.968Z,20.30
2022-08-27T20:03:41.089Z,20.20
2022-08-27T20:06:09.222Z,20.20
2022-08-27T20:08:37.321Z,20.10
2022-08-27T20:11:05.206Z,20.10
2022-08-27T20:13:33.360Z,20.00
2022-08-27T20:20:10.123Z,19.90
2022-08-27T20:22:39.747Z,20.10
2022-08-27T20:25:08.051Z,20.10
2022-08-27T20:27:36.073Z,20.10
2022-08-27T20:30:04.904Z,20.10
2022-08-27T20:32:34.188Z,20.10
2022-08-27T20:35:03.480Z,20.10
2022-08-27T20:37:31.411Z,20.10
2022-08-27T20:45:12.136Z,20.20
2022-08-27T20:47:42.173Z,20.10
2022-08-27T20:50:11.804Z,20.10
2022-08-27T20:52:41.230Z,20.10
2022-08-27T20:55:10.063Z,20.10
2022-08-27T20:58:02.014Z,20.10
2022-08-27T21:00:33.596Z,20.10
2022-08-27T21:03:01.482Z,20.10
2022-08-27T21:05:34.195Z,20.00
2022-08-27T21:08:03.922Z,20.00
2022-08-27T21:10:33.050Z,20.00
2022-08-27T21:13:04.495Z,19.90
2022-08-27T21:15:32.989Z,19.90
2022-08-27T21:18:00.817Z,19.80
2022-08-27T21:20:28.719Z,19.80
2022-08-27T21:22:57.809Z,19.90
2022-08-27T21:25:27.627Z,19.90
2022-08-27T21:27:57.777Z,19.90
2022-08-27T21:30:26.467Z,20.00
2022-08-27T21:32:55.925Z,20.00
2022-08-27T21:35:49.126Z,20.00
2022-08-27T21:38:17.021Z,20.00
2022-08-27T21:40:44.891Z,20.00
2022-08-27T21:43:13.175Z,20.00
2022-08-27T21:45:41.781Z,20.00
2022-08-27T21:48:10.060Z,20.00
2022-08-27T21:50:38.397Z,20.00
2022-08-27T21:53:06.616Z,20.00
2022-08-27T21:56:24.646Z,20.10
2022-08-27T21:58:52.509Z,20.10
2022-08-27T22:01:20.682Z,20.00
2022-08-27T22:03:51.698Z,20.00
2022-08-27T22:06:20.058Z,20.00
2022-08-27T22:08:48.619Z,19.90
2022-08-27T22:11:23.337Z,19.90
2022-08-27T22:13:53.194Z,19.80
2022-08-27T22:16:21.087Z,19.80
2022-08-27T22:18:54.278Z,19.80
2022-08-27T22:21:26.456Z,19.70
2022-08-27T22:23:54.261Z,19.50
2022-08-27T22:26:22.586Z,19.50
2022-08-27T22:28:50.443Z,19.40
2022-08-27T22:31:19.096Z,19.30
2022-08-27T22:33:47.081Z,19.30
2022-08-27T22:36:15.323Z,19.30
2022-08-27T22:38:43.181Z,19.20
2022-08-27T22:41:11.000Z,19.00
2022-08-27T22:43:39.614Z,19.00
2022-08-27T22:46:07.581Z,18.90
2022-08-27T22:48:35.787Z,18.90
2022-08-27T22:51:04.050Z,18.90
2022-08-27T22:53:32.142Z,18.80
2022-08-27T22:56:00.082Z,19.00
2022-08-27T22:58:28.415Z,19.10
2022-08-27T23:00:57.398Z,19.20
2022-08-27T23:03:25.302Z,19.20
2022-08-27T23:05:53.386Z,19.00
2022-08-27T23:08:23.057Z,19.00
2022-08-27T23:10:52.679Z,19.00
2022-08-27T23:13:21.760Z,19.00
2022-08-27T23:15:49.740Z,19.00
2022-08-27T23:18:17.614Z,19.00
2022-08-27T23:20:45.782Z,18.90
2022-08-27T23:23:13.541Z,18.90
2022-08-27T23:26:00.189Z,18.90
2022-08-27T23:28:28.080Z,19.00
2022-08-27T23:30:55.888Z,19.00
2022-08-27T23:33:23.781Z,19.00
2022-08-27T23:35:51.924Z,18.90
2022-08-27T23:38:21.203Z,18.90
2022-08-27T23:40:50.227Z,18.80
2022-08-27T23:43:19.092Z,18.70
2022-08-27T23:45:47.255Z,18.60
2022-08-27T23:48:15.213Z,18.60
2022-08-27T23:50:44.163Z,18.50
2022-08-27T23:53:13.190Z,18.50
2022-08-27T23:55:41.557Z,18.40
2022-08-27T23:58:10.025Z,18.30
